Flight Track Log - Related Links

Times and Time Zones

All times are in EDT time to prevent confusion due to time zone crossing. See the UAL906 flight status page for this flight to view local times or setup timezone preferences in your user account.


Time Position Orientation Groundspeed Altitude Reporting Facility
EDT Latitude Longitude Course Direction KTS MPH feet Rate Location/Type
Fri 07:14:17 PM 41.9880 -87.9230 317° Northwest 170 196 1,200  Level FlightAware ADS-B
Fri 07:14:37 PM 42.0010 -87.9340 328° Northwest 164 189 2,300 2,000 Climbing FlightAware ADS-B
Fri 07:15:02 PM 42.0200 -87.9490 330° Northwest 206 237 2,700 1,560 Climbing FlightAware ADS-B
Fri 07:15:27 PM 42.0410 -87.9660 329° Northwest 217 250 3,600 2,400 Climbing FlightAware ADS-B
Fri 07:15:42 PM 42.0510 -87.9750 326° Northwest 215 247 4,300 2,000 Climbing FlightAware ADS-B
Fri 07:16:12 PM 42.0800 -87.9980 330° Northwest 233 268 5,100 1,200 Climbing FlightAware ADS-B
Fri 07:16:27 PM 42.0930 -88.0090 328° Northwest 238 274 5,200 150 Climbing FlightAware ADS-B
Fri 07:16:52 PM 42.1150 -88.0260 330° Northwest 235 270 5,200  Level FlightAware ADS-B
Fri 07:17:07 PM 42.1310 -88.0310 347° North 244 281 5,200 133 Level FlightAware ADS-B
Fri 07:17:37 PM 42.1680 -88.0260 North 250 288 5,300 436 Climbing FlightAware ADS-B
Fri 07:18:02 PM 42.1960 -88.0200 North 248 285 5,600 1,500 Climbing FlightAware ADS-B
Fri 07:18:17 PM 42.2130 -88.0170 North 250 288 6,300 2,700 Climbing FlightAware ADS-B
Fri 07:18:42 PM 42.2440 -88.0110 North 259 298 7,400 2,509 Climbing FlightAware ADS-B
Fri 07:19:12 PM 42.2810 -88.0060 North 265 305 8,600 2,400 Climbing FlightAware ADS-B
Fri 07:19:42 PM 42.3150 -88.0010 North 267 307 9,800 1,800 Climbing FlightAware ADS-B
Fri 07:20:22 PM 42.3700 -87.9930 North 307 353 10,700 1,050 Climbing FlightAware ADS-B
Fri 07:21:02 PM 42.4300 -87.9850 North 351 404 11,200 1,553 Climbing FlightAware ADS-B
Fri 07:21:47 PM 42.5030 -87.9720 North 371 427 12,900 2,400 Climbing FlightAware ADS-B
Fri 07:22:27 PM 42.5680 -87.9320 24° Northeast 386 444 14,600 2,329 Climbing FlightAware ADS-B
Fri 07:23:12 PM 42.6410 -87.8760 29° Northeast 408 470 16,200 1,976 Climbing FlightAware ADS-B
Fri 07:23:52 PM 42.6970 -87.8130 40° Northeast 422 486 17,400 1,875 Climbing FlightAware ADS-B
Fri 07:24:32 PM 42.7590 -87.7450 39° Northeast 432 497 18,700 1,980 Climbing FlightAware ADS-B
Fri 07:25:32 PM 42.8560 -87.6370 39° Northeast 444 511 20,700 1,920 Climbing FlightAware ADS-B
Fri 07:26:12 PM 42.9190 -87.5670 39° Northeast 450 518 21,900 1,765 Climbing FlightAware ADS-B
Fri 07:26:57 PM 42.9940 -87.4840 39° Northeast 459 528 23,200 1,482 Climbing FlightAware ADS-B
Fri 07:27:37 PM 43.0570 -87.4140 39° Northeast 469 540 24,000 675 Climbing FlightAware ADS-B
Fri 07:28:17 PM 43.1210 -87.3420 39° Northeast 469 540 24,100 1,341 Climbing FlightAware ADS-B
Fri 07:29:02 PM 43.2040 -87.2480 40° Northeast 487 560 25,900 1,835 Climbing FlightAware ADS-B
Fri 07:29:42 PM 43.2700 -87.1740 39° Northeast 494 568 26,700 1,624 Climbing FlightAware ADS-B
Fri 07:30:27 PM 43.3560 -87.0760 40° Northeast 491 565 28,200 1,800 Climbing FlightAware ADS-B
Fri 07:31:02 PM 43.4160 -87.0090 39° Northeast 491 565 29,100 1,275 Climbing FlightAware ADS-B
Fri 07:31:47 PM 43.4940 -86.9200 40° Northeast 496 571 29,900 1,200 Climbing FlightAware ADS-B
Fri 07:32:32 PM 43.5720 -86.8310 40° Northeast 496 571 30,900 776 Climbing FlightAware ADS-B
Fri 07:33:12 PM 43.6470 -86.7450 40° Northeast 509 586 31,000 75 Climbing FlightAware ADS-B
Fri 07:33:52 PM 43.7170 -86.6650 40° Northeast 512 589 31,000  Level FlightAware ADS-B
Fri 07:34:37 PM 43.8040 -86.5660 39° Northeast 515 593 31,000  Level FlightAware ADS-B
Fri 07:35:12 PM 43.8660 -86.4950 40° Northeast 516 594 31,000  Level FlightAware ADS-B
Fri 07:36:02 PM 43.9540 -86.3920 40° Northeast 521 600 31,000  Level FlightAware ADS-B
Fri 07:36:42 PM 44.0330 -86.3000 40° Northeast 523 602 31,000  Level FlightAware ADS-B
Fri 07:37:27 PM 44.1140 -86.2060 40° Northeast 525 604 31,000  Level FlightAware ADS-B
Fri 07:38:07 PM 44.1890 -86.1180 40° Northeast 525 604 31,000  Level FlightAware ADS-B
Fri 07:38:42 PM 44.2550 -86.0410 40° Northeast 526 605 31,000  Level FlightAware ADS-B
Fri 07:39:32 PM 44.3420 -85.9380 40° Northeast 525 604 31,000  Level FlightAware ADS-B
Fri 07:40:12 PM 44.4220 -85.8440 40° Northeast 524 603 31,000  Level FlightAware ADS-B
Fri 07:40:57 PM 44.5020 -85.7490 40° Northeast 524 603 31,000  Level FlightAware ADS-B
Fri 07:41:37 PM 44.5800 -85.6570 40° Northeast 523 602 31,000  Level FlightAware ADS-B
Fri 07:42:17 PM 44.6440 -85.5760 42° Northeast 522 601 31,000  Level FlightAware ADS-B
Fri 07:43:02 PM 44.7160 -85.4580 49° Northeast 520 598 31,000  Level FlightAware ADS-B
Fri 07:43:42 PM 44.7770 -85.3420 53° Northeast 519 597 31,000  Level FlightAware ADS-B
Fri 07:44:17 PM 44.8260 -85.2470 54° Northeast 519 597 31,000  Level FlightAware ADS-B
Fri 07:45:12 PM 44.9010 -85.1020 54° Northeast 519 597 31,000  Level FlightAware ADS-B
Fri 07:45:57 PM 44.9660 -84.9750 54° Northeast 519 597 31,000  Level FlightAware ADS-B
Fri 07:46:37 PM 45.0210 -84.8670 54° Northeast 520 598 31,000  Level FlightAware ADS-B
Fri 07:47:22 PM 45.0880 -84.7370 54° Northeast 520 598 31,000  Level FlightAware ADS-B
Fri 07:48:02 PM 45.1450 -84.6270 54° Northeast 522 601 31,000  Level FlightAware ADS-B
Fri 07:48:42 PM 45.2020 -84.5160 54° Northeast 522 601 31,000  Level FlightAware ADS-B
Fri 07:49:27 PM 45.2640 -84.3940 54° Northeast 525 604 31,000  Level FlightAware ADS-B
Fri 07:50:07 PM 45.3200 -84.2830 54° Northeast 527 606 31,000  Level FlightAware ADS-B
Fri 07:50:47 PM 45.3770 -84.1700 54° Northeast 529 609 31,000  Level FlightAware ADS-B
Fri 07:51:32 PM 45.4430 -84.0360 55° Northeast 529 609 31,000  Level FlightAware ADS-B
Fri 07:52:12 PM 45.4990 -83.9230 55° Northeast 531 611 31,000  Level FlightAware ADS-B
Fri 07:52:57 PM 45.5600 -83.7970 55° Northeast 534 615 31,000  Level FlightAware ADS-B
Fri 07:53:37 PM 45.6180 -83.6810 54° Northeast 535 616 31,000  Level FlightAware ADS-B
Fri 07:54:22 PM 45.6820 -83.5500 55° Northeast 538 619 31,000  Level FlightAware ADS-B
Fri 07:55:02 PM 45.7400 -83.4310 55° Northeast 539 620 31,000  Level FlightAware ADS-B
Fri 07:55:42 PM 45.7970 -83.3130 55° Northeast 540 621 31,000  Level FlightAware ADS-B
Fri 07:56:27 PM 45.8580 -83.1860 55° Northeast 541 623 31,000  Level FlightAware ADS-B
Fri 07:57:07 PM 45.9170 -83.0630 55° Northeast 543 625 31,000  Level FlightAware ADS-B
Fri 07:57:52 PM 45.9820 -82.9280 55° Northeast 545 627 31,000  Level FlightAware ADS-B
Fri 07:58:32 PM 46.0350 -82.8180 55° Northeast 547 629 31,000  Level FlightAware ADS-B
Fri 07:59:12 PM 46.0960 -82.6900 55° Northeast 548 631 31,000  Level FlightAware ADS-B
Fri 07:59:57 PM 46.1590 -82.5560 56° Northeast 548 631 31,000  Level FlightAware ADS-B
Fri 08:00:37 PM 46.2160 -82.4340 56° Northeast 549 632 31,000  Level FlightAware ADS-B
Fri 08:01:17 PM 46.2690 -82.3190 56° Northeast 549 632 31,000  Level FlightAware ADS-B
Fri 08:01:57 PM 46.3180 -82.2150 56° Northeast 549 632 31,000  Level FlightAware ADS-B
Fri 08:02:37 PM 46.3660 -82.1120 56° Northeast 549 632 31,000  Level FlightAware ADS-B
Fri 08:03:22 PM 46.4450 -81.9390 56° Northeast 548 631 31,000  Level FlightAware ADS-B
Fri 08:04:07 PM 46.5030 -81.8150 56° Northeast 548 631 31,000  Level FlightAware ADS-B
Fri 08:04:47 PM 46.5510 -81.7110 56° Northeast 548 631 31,000  Level FlightAware ADS-B
Fri 08:05:27 PM 46.5990 -81.6070 56° Northeast 548 631 31,000  Level FlightAware ADS-B
Fri 08:06:17 PM 46.6590 -81.4770 56° Northeast 548 631 31,000  Level FlightAware ADS-B
Fri 08:06:57 PM 46.7080 -81.3730 55° Northeast 548 631 31,000  Level FlightAware ADS-B
Fri 08:07:37 PM 46.7560 -81.2690 56° Northeast 548 631 31,000  Level FlightAware ADS-B
Fri 08:08:17 PM 46.8040 -81.1640 56° Northeast 548 631 31,000  Level FlightAware ADS-B
Fri 08:08:57 PM 46.8520 -81.0600 56° Northeast 548 631 31,000  Level FlightAware ADS-B
Fri 08:09:47 PM 46.9120 -80.9290 56° Northeast 548 631 31,000  Level FlightAware ADS-B
Fri 08:10:27 PM 46.9610 -80.8240 56° Northeast 548 631 31,000  Level FlightAware ADS-B
Fri 08:11:07 PM 47.0090 -80.7200 56° Northeast 548 631 31,000  Level FlightAware ADS-B
Fri 08:11:47 PM 47.0570 -80.6150 56° Northeast 548 631 31,000  Level FlightAware ADS-B
Fri 08:12:27 PM 47.1050 -80.5100 56° Northeast 548 631 31,000  Level FlightAware ADS-B
Fri 08:13:07 PM 47.1530 -80.4050 56° Northeast 548 631 31,000  Level FlightAware ADS-B
Fri 08:13:52 PM 47.3000 -79.9000 56° Northeast 560 644 31,000  Level Toronto Center
Fri 08:14:52 PM 47.3833 -79.7000 58° Northeast 570 656 31,000  Level Toronto Center
Fri 08:15:52 PM 47.4667 -79.5000 58° Northeast 580 667 31,000  Level Toronto Center
Fri 08:16:52 PM 47.5500 -79.3167 56° Northeast 580 667 31,000  Level Toronto Center
Fri 08:22:27 PM 48.0500 -78.1690 56° Northeast 31,000  Level FlightAware ADS-B
Fri 08:22:52 PM 48.0880 -78.0720 60° Northeast 608 700 31,000  Level FlightAware ADS-B
Fri 08:23:22 PM 48.1300 -77.9640 60° Northeast 609 701 31,000  Level FlightAware ADS-B
Fri 08:24:12 PM 48.1960 -77.8000 59° Northeast 611 703 31,000  Level FlightAware ADS-B
Fri 08:24:47 PM 48.2700 -77.7050 40° Northeast 651 749 31,000  Level FlightAware ADS-B
Fri 08:25:32 PM 48.3610 -77.5820 42° Northeast 651 749 31,000  Level FlightAware ADS-B
Fri 08:26:12 PM 48.4370 -77.4790 42° Northeast 651 749 31,000  Level FlightAware ADS-B
Fri 08:27:02 PM 48.5320 -77.3490 42° Northeast 651 749 31,000  Level FlightAware ADS-B
Fri 08:27:42 PM 48.6080 -77.2460 42° Northeast 651 749 31,000  Level FlightAware ADS-B
Fri 08:28:22 PM 48.6840 -77.1420 42° Northeast 651 749 31,000  Level FlightAware ADS-B
Fri 08:29:02 PM 48.7600 -77.0380 42° Northeast 651 749 31,000  Level FlightAware ADS-B
Fri 08:29:42 PM 48.8360 -76.9340 42° Northeast 651 749 31,000  Level FlightAware ADS-B
Fri 08:30:32 PM 48.9320 -76.8040 42° Northeast 651 749 31,000  Level FlightAware ADS-B
Fri 08:31:12 PM 49.0080 -76.6990 42° Northeast 651 749 31,000  Level FlightAware ADS-B
Fri 08:31:52 PM 49.0840 -76.5950 42° Northeast 651 749 31,000  Level FlightAware ADS-B
Fri 08:32:32 PM 49.1600 -76.4900 42° Northeast 651 749 31,000  Level FlightAware ADS-B
Fri 08:33:12 PM 49.2360 -76.3850 42° Northeast 651 749 31,000  Level FlightAware ADS-B
Fri 08:34:02 PM 49.3310 -76.2540 42° Northeast 651 749 31,000  Level FlightAware ADS-B
Fri 08:34:42 PM 49.4070 -76.1490 42° Northeast 651 749 31,000 1,071 Level FlightAware ADS-B
Fri 08:35:54 PM 49.7167 -75.6500 42° Northeast 630 725 33,000 909 Climbing Montreal Center
Fri 08:36:54 PM 49.8333 -75.4667 45° Northeast 620 713 33,000  Level Montreal Center
Fri 08:37:54 PM 49.9500 -75.2667 48° Northeast 620 713 33,000  Level Montreal Center
Fri 08:38:54 PM 50.0667 -75.0667 48° Northeast 610 702 33,000  Level Montreal Center
Fri 08:39:54 PM 50.2000 -74.8833 41° Northeast 620 713 33,000  Level Montreal Center
Fri 08:40:54 PM 50.3167 -74.6667 50° Northeast 620 713 33,000  Level Montreal Center
Fri 08:41:54 PM 50.4333 -74.4833 45° Northeast 620 713 33,000  Level Montreal Center
Fri 08:42:54 PM 50.5500 -74.3000 45° Northeast 620 713 33,000  Level Montreal Center
Fri 08:43:54 PM 50.6667 -74.1000 47° Northeast 620 713 33,000  Level Montreal Center
Fri 08:44:54 PM 50.8000 -73.8833 46° Northeast 610 702 33,000  Level Montreal Center
Fri 08:45:54 PM 50.9167 -73.7000 45° Northeast 600 690 33,000  Level Montreal Center
Fri 08:46:54 PM 51.0167 -73.5000 51° Northeast 600 690 33,000  Level Montreal Center
Fri 08:47:54 PM 51.1333 -73.3167 45° Northeast 590 679 33,000  Level Montreal Center
Fri 08:48:54 PM 51.2333 -73.1167 51° Northeast 590 679 33,000  Level Montreal Center
Fri 08:49:54 PM 51.3500 -72.9167 47° Northeast 590 679 33,000  Level Montreal Center
Fri 08:50:54 PM 51.4667 -72.7167 47° Northeast 600 690 33,000  Level Montreal Center
Fri 08:51:54 PM 51.5833 -72.5167 47° Northeast 600 690 33,000  Level Montreal Center
Fri 08:52:54 PM 51.7000 -72.3167 47° Northeast 610 702 33,000  Level Montreal Center
Fri 08:53:54 PM 51.8167 -72.1000 49° Northeast 610 702 33,000  Level Montreal Center
Fri 08:54:54 PM 51.9167 -71.9000 51° Northeast 610 702 33,000  Level Montreal Center
Fri 08:55:54 PM 52.0333 -71.7000 46° Northeast 600 690 33,000  Level Montreal Center
Fri 08:56:54 PM 52.1500 -71.4833 49° Northeast 600 690 33,000  Level Montreal Center
Fri 08:57:54 PM 52.2500 -71.2833 51° Northeast 590 679 33,000  Level Montreal Center
Fri 08:58:54 PM 52.3667 -71.0833 46° Northeast 590 679 33,000  Level Montreal Center
Fri 08:59:54 PM 52.4667 -70.8833 51° Northeast 590 679 33,000  Level Montreal Center
Fri 09:00:54 PM 52.5833 -70.6667 48° Northeast 590 679 33,000  Level Montreal Center
Fri 09:01:54 PM 52.6833 -70.4667 50° Northeast 590 679 33,000  Level Montreal Center
Fri 09:02:54 PM 52.7833 -70.2500 53° Northeast 590 679 33,000  Level Montreal Center
Fri 09:03:54 PM 52.8833 -70.0500 50° Northeast 590 679 33,000  Level Montreal Center
Fri 09:04:54 PM 53.0000 -69.8333 48° Northeast 590 679 33,000  Level Montreal Center
Fri 09:05:54 PM 53.1000 -69.6500 48° Northeast 590 679 33,000  Level Montreal Center
Fri 09:06:29 PM 53.1667 -69.5500 42° Northeast 600 690 33,000  Level Gander Center
Fri 09:07:29 PM 53.2833 -69.3500 46° Northeast 590 679 33,000  Level Gander Center
Fri 09:07:54 PM 53.3167 -69.2167 67° East 590 679 33,000  Level Montreal Center
Fri 09:08:54 PM 53.4167 -68.9833 54° Northeast 590 679 33,000  Level Montreal Center
Fri 09:09:54 PM 53.5333 -68.7667 48° Northeast 590 679 33,000  Level Montreal Center
Fri 09:10:54 PM 53.6333 -68.5667 50° Northeast 580 667 33,000  Level Montreal Center
Fri 09:11:54 PM 53.7333 -68.3500 52° Northeast 570 656 33,000  Level Montreal Center
Fri 09:12:29 PM 53.7833 -68.2833 38° Northeast 570 656 33,000  Level Gander Center
Fri 09:13:29 PM 53.9000 -68.0667 48° Northeast 570 656 33,000  Level Gander Center
Fri 09:13:54 PM 53.9333 -67.9500 64° Northeast 560 644 33,000  Level Montreal Center
Fri 09:14:54 PM 54.0167 -67.7333 57° Northeast 560 644 33,000  Level Montreal Center
Fri 09:15:54 PM 54.1167 -67.5333 49° Northeast 550 633 33,000  Level Montreal Center
Fri 09:16:54 PM 54.2000 -67.3167 57° Northeast 550 633 33,000  Level Montreal Center
Fri 09:17:54 PM 54.3167 -67.1167 45° Northeast 550 633 33,000  Level Montreal Center
Fri 09:18:54 PM 54.4000 -66.9000 56° Northeast 550 633 33,000  Level Montreal Center
Fri 09:19:54 PM 54.5000 -66.7000 49° Northeast 560 644 33,000  Level Montreal Center
Fri 09:20:54 PM 54.5833 -66.4667 58° Northeast 560 644 33,000 253 Level Montreal Center
Fri 09:21:29 PM 54.6500 -66.3667 41° Northeast 570 656 33,400 884 Climbing Gander Center
Fri 09:22:29 PM 54.7500 -66.1500 51° Northeast 580 667 34,400 800 Climbing Gander Center
Fri 09:23:29 PM 54.8500 -65.9333 51° Northeast 580 667 35,000 424 Climbing Gander Center
Fri 09:23:54 PM 54.8833 -65.8167 64° Northeast 570 656 35,000  Level Montreal Center
Fri 09:24:54 PM 54.9667 -65.5833 58° Northeast 570 656 35,000  Level Montreal Center
Fri 09:25:54 PM 55.0667 -65.3833 49° Northeast 580 667 35,000  Level Montreal Center
Fri 09:26:54 PM 55.1667 -65.1167 57° Northeast 580 667 35,000  Level Montreal Center
Fri 09:27:54 PM 55.2667 -64.9167 49° Northeast 570 656 35,000  Level Montreal Center
Fri 09:28:29 PM 55.3167 -64.8000 53° Northeast 570 656 35,000  Level Gander Center
Fri 09:29:29 PM 55.4000 -64.6000 54° Northeast 560 644 35,000  Level Gander Center
Fri 09:29:54 PM 55.4500 -64.4667 56° Northeast 570 656 35,000  Level Montreal Center
Fri 09:30:54 PM 55.5500 -64.2333 53° Northeast 560 644 35,000  Level Montreal Center
Fri 09:31:54 PM 55.6167 -64.0000 63° Northeast 560 644 35,000  Level Montreal Center
Fri 09:32:26 PM 55.6667 -63.9167 43° Northeast 560 644 35,000  Level Gander Center
Fri 09:32:54 PM 55.7167 -63.7500 62° Northeast 560 644 35,000  Level Montreal Center
Fri 09:33:54 PM 55.8000 -63.5167 57° Northeast 570 656 35,000  Level Montreal Center
Fri 09:34:26 PM 55.8500 -63.4167 48° Northeast 580 667 35,000  Level Gander Center
Fri 09:35:26 PM 55.9167 -63.1833 63° Northeast 580 667 35,000  Level Gander Center
Fri 09:36:26 PM 56.0000 -62.9500 57° Northeast 570 656 35,000  Level Gander Center
Fri 09:37:26 PM 56.1000 -62.6833 56° Northeast 580 667 35,000  Level Gander Center
Fri 09:37:54 PM 56.1333 -62.5167 70° East 570 656 35,000  Level Montreal Center
Fri 09:38:29 PM 56.1833 -62.4500 37° Northeast 580 667 35,000  Level Gander Center
Fri 09:38:54 PM 56.2000 -62.3167 77° East 550 633 35,000  Level Montreal Center
Fri 09:39:54 PM 56.3000 -62.1000 50° Northeast 560 644 35,000  Level Montreal Center
Fri 09:40:26 PM 56.3333 -61.9667 66° East 570 656 35,000  Level Gander Center
Fri 09:41:26 PM 56.4167 -61.7000 60° Northeast 580 667 35,000  Level Gander Center
Fri 09:42:26 PM 56.5000 -61.4667 57° Northeast 570 656 35,000  Level Gander Center
Fri 09:43:26 PM 56.5833 -61.1833 62° Northeast 580 667 35,000  Level Gander Center
Fri 09:44:26 PM 56.6667 -60.9500 57° Northeast 580 667 35,000  Level Gander Center
Fri 09:45:26 PM 56.7500 -60.7000 59° Northeast 590 679 35,000  Level Gander Center
Fri 09:46:26 PM 56.8333 -60.4333 60° Northeast 590 679 35,000  Level Gander Center
Fri 09:47:26 PM 56.9167 -60.1833 59° Northeast 600 690 35,000  Level Gander Center
Fri 09:48:26 PM 57.0000 -59.9000 62° Northeast 580 667 35,000  Level Gander Center
Fri 09:49:26 PM 57.0667 -59.6500 64° Northeast 590 679 35,000  Level Gander Center
Fri 09:50:26 PM 57.1333 -59.4000 64° Northeast 590 679 35,000  Level Gander Center
Fri 09:51:26 PM 57.2167 -59.1333 60° Northeast 590 679 35,000  Level Gander Center
Fri 09:52:26 PM 57.2500 -58.8167 79° East 600 690 35,000  Level Gander Center
Fri 09:53:26 PM 57.2833 -58.5000 79° East 610 702 35,000  Level Gander Center
Fri 09:54:26 PM 57.3167 -58.2000 78° East 610 702 35,000  Level Gander Center
Fri 09:55:26 PM 57.3667 -57.8833 74° East 610 702 35,000  Level Gander Center
Fri 09:56:26 PM 57.4000 -57.5667 79° East 620 713 35,000  Level Gander Center
Fri 09:57:26 PM 57.4167 -57.2500 84° East 610 702 35,000  Level Gander Center
Fri 09:58:26 PM 57.4833 -56.9000 70° East 620 713 35,000  Level Gander Center
Fri 09:59:26 PM 57.4833 -56.6333 90° East 620 713 35,000  Level Gander Center
Fri 10:00:26 PM 57.5333 -56.3167 73° East 620 713 35,000  Level Gander Center
Fri 10:01:26 PM 57.5500 -56.0000 84° East 620 713 35,000  Level Gander Center
Fri 10:02:26 PM 57.5833 -55.6833 79° East 620 713 35,000  Level Gander Center
Fri 10:03:26 PM 57.6167 -55.3667 79° East 620 713 35,000  Level Gander Center
Fri 10:04:26 PM 57.6333 -55.0500 84° East 620 713 35,000  Level Gander Center
Fri 10:05:26 PM 57.6500 -54.7333 84° East 620 713 35,000 13 Level Gander Center
Fri 10:07:00 PM 57.7085 -54.3413 81° East  Level FlightAware Approximate
Fri 10:14:00 PM 57.8516 -52.4893 81° East  Level FlightAware Approximate
Fri 10:15:00 PM 57.8698 -52.2236 83° East  Level FlightAware Approximate
Fri 10:16:00 PM 57.8875 -51.9576 83° East  Level FlightAware Approximate
Fri 10:17:00 PM 57.9046 -51.6913 83° East  Level FlightAware Approximate
Fri 10:18:00 PM 57.9211 -51.4248 83° East  Level FlightAware Approximate
Fri 10:19:00 PM 57.9371 -51.1581 83° East  Level FlightAware Approximate
Fri 10:20:00 PM 57.9526 -50.8911 84° East  Level FlightAware Approximate
Fri 10:21:00 PM 57.9675 -50.6239 84° East  Level FlightAware Approximate
Fri 10:22:00 PM 57.9818 -50.3565 84° East  Level FlightAware Approximate
Fri 10:23:00 PM 57.9956 -50.0889 84° East  Level FlightAware Approximate
Fri 10:24:00 PM 58.0069 -49.8208 86° East  Level FlightAware Approximate
Fri 10:25:00 PM 58.0168 -49.5523 86° East  Level FlightAware Approximate
Fri 10:26:00 PM 58.0261 -49.2838 86° East  Level FlightAware Approximate
Fri 10:27:00 PM 58.0349 -49.0151 86° East  Level FlightAware Approximate
Fri 10:28:00 PM 58.0431 -48.7463 87° East  Level FlightAware Approximate
Fri 10:29:00 PM 58.0507 -48.4773 87° East  Level FlightAware Approximate
Fri 10:30:00 PM 58.0578 -48.2083 87° East  Level FlightAware Approximate
Fri 10:31:00 PM 58.0643 -47.9392 87° East  Level FlightAware Approximate
Fri 10:32:00 PM 58.0702 -47.6699 88° East  Level FlightAware Approximate
Fri 10:33:00 PM 58.0755 -47.4006 88° East  Level FlightAware Approximate
Fri 10:34:00 PM 58.0803 -47.1312 88° East  Level FlightAware Approximate
Fri 10:35:00 PM 58.0845 -46.8617 88° East  Level FlightAware Approximate
Fri 10:36:00 PM 58.0882 -46.5922 88° East  Level FlightAware Approximate
Fri 10:37:00 PM 58.0913 -46.3226 89° East  Level FlightAware Approximate
Fri 10:38:00 PM 58.0938 -46.0530 89° East  Level FlightAware Approximate
Fri 10:39:00 PM 58.0957 -45.7833 89° East  Level FlightAware Approximate
Fri 10:40:00 PM 58.0971 -45.5136 89° East  Level FlightAware Approximate
Fri 10:41:00 PM 58.0979 -45.2439 90° East  Level FlightAware Approximate
Fri 10:42:00 PM 58.0981 -44.9742 90° East  Level FlightAware Approximate
Fri 10:43:00 PM 58.0978 -44.7045 90° East  Level FlightAware Approximate
Fri 10:44:00 PM 58.0969 -44.4348 90° East  Level FlightAware Approximate
Fri 10:45:00 PM 58.0954 -44.1651 90° East  Level FlightAware Approximate
Fri 10:46:00 PM 58.0933 -43.8955 91° East  Level FlightAware Approximate
Fri 10:47:00 PM 58.0907 -43.6259 91° East  Level FlightAware Approximate
Fri 10:48:00 PM 58.0875 -43.3563 91° East  Level FlightAware Approximate
Fri 10:49:00 PM 58.0838 -43.0868 91° East  Level FlightAware Approximate
Fri 10:50:00 PM 58.0794 -42.8173 92° East  Level FlightAware Approximate
Fri 10:51:00 PM 58.0745 -42.5479 92° East  Level FlightAware Approximate
Fri 10:52:00 PM 58.0691 -42.2786 92° East  Level FlightAware Approximate
Fri 10:53:00 PM 58.0630 -42.0094 92° East  Level FlightAware Approximate
Fri 10:54:00 PM 58.0564 -41.7403 93° East  Level FlightAware Approximate
Fri 10:55:00 PM 58.0493 -41.4712 93° East  Level FlightAware Approximate
Fri 10:56:00 PM 58.0416 -41.2023 93° East  Level FlightAware Approximate
Fri 10:57:00 PM 58.0333 -40.9335 93° East  Level FlightAware Approximate
Fri 10:58:00 PM 58.0244 -40.6649 93° East  Level FlightAware Approximate
Fri 10:59:00 PM 58.0150 -40.3963 94° East  Level FlightAware Approximate
Fri 11:00:00 PM 58.0050 -40.1280 94° East  Level FlightAware Approximate
Fri 11:01:00 PM 58.0054 -39.8597 86° East  Level FlightAware Approximate
Fri 11:02:00 PM 58.0154 -39.5913 86° East  Level FlightAware Approximate
Fri 11:03:00 PM 58.0248 -39.3228 86° East  Level FlightAware Approximate
Fri 11:04:00 PM 58.0336 -39.0541 86° East  Level FlightAware Approximate
Fri 11:05:00 PM 58.0419 -38.7853 87° East  Level FlightAware Approximate
Fri 11:06:00 PM 58.0496 -38.5164 87° East  Level FlightAware Approximate
Fri 11:07:00 PM 58.0568 -38.2473 87° East  Level FlightAware Approximate
Fri 11:08:00 PM 58.0633 -37.9782 87° East  Level FlightAware Approximate
Fri 11:09:00 PM 58.0693 -37.7090 87° East  Level FlightAware Approximate
Fri 11:10:00 PM 58.0748 -37.4397 88° East  Level FlightAware Approximate
Fri 11:11:00 PM 58.0796 -37.1703 88° East  Level FlightAware Approximate
Fri 11:12:00 PM 58.0839 -36.9008 88° East  Level FlightAware Approximate
Fri 11:13:00 PM 58.0877 -36.6313 88° East  Level FlightAware Approximate
Fri 11:14:00 PM 58.0908 -36.3617 89° East  Level FlightAware Approximate
Fri 11:15:00 PM 58.0934 -36.0921 89° East  Level FlightAware Approximate
Fri 11:16:00 PM 58.0954 -35.8224 89° East  Level FlightAware Approximate
Fri 11:17:00 PM 58.0969 -35.5528 89° East  Level FlightAware Approximate
Fri 11:18:00 PM 58.0978 -35.2831 90° East  Level FlightAware Approximate
Fri 11:19:00 PM 58.0981 -35.0134 90° East  Level FlightAware Approximate
Fri 11:20:00 PM 58.0978 -34.7436 90° East  Level FlightAware Approximate
Fri 11:21:00 PM 58.0970 -34.4739 90° East  Level FlightAware Approximate
Fri 11:22:00 PM 58.0956 -34.2043 90° East  Level FlightAware Approximate
Fri 11:23:00 PM 58.0936 -33.9346 91° East  Level FlightAware Approximate
Fri 11:24:00 PM 58.0911 -33.6650 91° East  Level FlightAware Approximate
Fri 11:25:00 PM 58.0880 -33.3954 91° East  Level FlightAware Approximate
Fri 11:26:00 PM 58.0843 -33.1259 91° East  Level FlightAware Approximate
Fri 11:27:00 PM 58.0801 -32.8564 92° East  Level FlightAware Approximate
Fri 11:28:00 PM 58.0753 -32.5870 92° East  Level FlightAware Approximate
Fri 11:29:00 PM 58.0699 -32.3177 92° East  Level FlightAware Approximate
Fri 11:30:00 PM 58.0640 -32.0484 92° East  Level FlightAware Approximate
Fri 11:31:00 PM 58.0574 -31.7793 93° East  Level FlightAware Approximate
Fri 11:32:00 PM 58.0504 -31.5103 93° East  Level FlightAware Approximate
Fri 11:33:00 PM 58.0427 -31.2413 93° East  Level FlightAware Approximate
Fri 11:34:00 PM 58.0345 -30.9725 93° East  Level FlightAware Approximate
Fri 11:35:00 PM 58.0257 -30.7038 93° East  Level FlightAware Approximate
Fri 11:36:00 PM 58.0164 -30.4353 94° East  Level FlightAware Approximate
Fri 11:37:00 PM 58.0065 -30.1669 94° East  Level FlightAware Approximate
Fri 11:38:00 PM 58.0035 -29.8985 86° East  Level FlightAware Approximate
Fri 11:39:00 PM 58.0122 -29.6300 86° East  Level FlightAware Approximate
Fri 11:40:00 PM 58.0205 -29.3614 87° East  Level FlightAware Approximate
Fri 11:41:00 PM 58.0281 -29.0926 87° East  Level FlightAware Approximate
Fri 11:42:00 PM 58.0352 -28.8237 87° East  Level FlightAware Approximate
Fri 11:43:00 PM 58.0417 -28.5548 87° East  Level FlightAware Approximate
Fri 11:44:00 PM 58.0476 -28.2857 87° East  Level FlightAware Approximate
Fri 11:45:00 PM 58.0530 -28.0165 88° East  Level FlightAware Approximate
Fri 11:46:00 PM 58.0578 -27.7473 88° East  Level FlightAware Approximate
Fri 11:47:00 PM 58.0621 -27.4780 88° East  Level FlightAware Approximate
Fri 11:48:00 PM 58.0657 -27.2086 88° East  Level FlightAware Approximate
Fri 11:49:00 PM 58.0701 -26.9393 88° East  Level FlightAware Approximate
Fri 11:50:00 PM 58.0745 -26.6699 88° East  Level FlightAware Approximate
Fri 11:51:00 PM 58.0782 -26.4004 88° East  Level FlightAware Approximate
Fri 11:52:00 PM 58.0814 -26.1310 89° East  Level FlightAware Approximate
Fri 11:53:00 PM 58.0840 -25.8614 89° East  Level FlightAware Approximate
Fri 11:54:00 PM 58.0861 -25.5918 89° East  Level FlightAware Approximate
Fri 11:55:00 PM 58.0875 -25.3222 89° East  Level FlightAware Approximate
Fri 11:56:00 PM 58.0885 -25.0526 90° East  Level FlightAware Approximate
Fri 11:57:00 PM 58.0888 -24.7829 90° East  Level FlightAware Approximate
Fri 11:58:00 PM 58.0886 -24.5133 90° East  Level FlightAware Approximate
Fri 11:59:00 PM 58.0878 -24.2437 90° East  Level FlightAware Approximate
Sat 12:00:00 AM 58.0864 -23.9741 90° East  Level FlightAware Approximate
Sat 12:01:00 AM 58.0844 -23.7045 91° East  Level FlightAware Approximate
Sat 12:02:00 AM 58.0819 -23.4349 91° East  Level FlightAware Approximate
Sat 12:03:00 AM 58.0789 -23.1654 91° East  Level FlightAware Approximate
Sat 12:04:00 AM 58.0752 -22.8960 91° East  Level FlightAware Approximate
Sat 12:05:00 AM 58.0710 -22.6266 92° East  Level FlightAware Approximate
Sat 12:06:00 AM 58.0662 -22.3572 92° East  Level FlightAware Approximate
Sat 12:07:00 AM 58.0609 -22.0880 92° East  Level FlightAware Approximate
Sat 12:08:00 AM 58.0550 -21.8188 92° East  Level FlightAware Approximate
Sat 12:09:00 AM 58.0485 -21.5497 92° East  Level FlightAware Approximate
Sat 12:10:00 AM 58.0414 -21.2807 93° East  Level FlightAware Approximate
Sat 12:11:00 AM 58.0338 -21.0119 93° East  Level FlightAware Approximate
Sat 12:12:00 AM 58.0257 -20.7447 93° East  Level FlightAware Approximate
Sat 12:13:00 AM 58.0170 -20.4776 93° East  Level FlightAware Approximate
Sat 12:14:00 AM 58.0077 -20.2107 94° East  Level FlightAware Approximate
Sat 12:15:00 AM 57.9957 -19.9444 98° East  Level FlightAware Approximate
Sat 12:16:00 AM 57.9748 -19.6800 98° East  Level FlightAware Approximate
Sat 12:17:00 AM 57.9534 -19.4160 99° East  Level FlightAware Approximate
Sat 12:18:00 AM 57.9314 -19.1522 99° East  Level FlightAware Approximate
Sat 12:19:00 AM 57.9089 -18.8888 99° East  Level FlightAware Approximate
Sat 12:20:00 AM 57.8859 -18.6257 99° East  Level FlightAware Approximate
Sat 12:21:00 AM 57.8623 -18.3630 99° East  Level FlightAware Approximate
Sat 12:22:00 AM 57.8381 -18.1006 100° East  Level FlightAware Approximate
Sat 12:23:00 AM 57.8134 -17.8386 100° East  Level FlightAware Approximate
Sat 12:24:00 AM 57.7882 -17.5769 100° East  Level FlightAware Approximate
Sat 12:25:00 AM 57.7625 -17.3156 100° East  Level FlightAware Approximate
Sat 12:26:00 AM 57.7362 -17.0547 101° East  Level FlightAware Approximate
Sat 12:27:00 AM 57.7094 -16.7941 101° East  Level FlightAware Approximate
Sat 12:28:00 AM 57.6820 -16.5340 101° East  Level FlightAware Approximate
Sat 12:29:00 AM 57.6541 -16.2742 101° East  Level FlightAware Approximate
Sat 12:30:00 AM 57.6257 -16.0149 101° East  Level FlightAware Approximate
Sat 12:31:00 AM 57.5967 -15.7559 102° East  Level FlightAware Approximate
Sat 12:32:00 AM 57.5672 -15.4974 102° East  Level FlightAware Approximate
Sat 12:33:00 AM 57.5372 -15.2393 102° East  Level FlightAware Approximate
Sat 12:34:00 AM 57.5067 -14.9816 102° East  Level FlightAware Approximate
Sat 12:35:00 AM 57.4756 -14.7244 103° East  Level FlightAware Approximate
Sat 12:36:00 AM 57.4440 -14.4676 103° East  Level FlightAware Approximate
Sat 12:37:00 AM 57.4119 -14.2112 103° East  Level FlightAware Approximate
Sat 12:38:00 AM 57.3793 -13.9553 103° East  Level FlightAware Approximate
Sat 12:39:00 AM 57.3461 -13.6999 103° East  Level FlightAware Approximate
Sat 12:40:00 AM 57.3125 -13.4449 104° East  Level FlightAware Approximate
Sat 12:40:22 AM 56.7550 -12.0340 104° East 499 574 37,000  Level FlightAware ADS-B
Sat 12:40:57 AM 56.7410 -11.9070 101° East 499 574 37,000  Level FlightAware ADS-B
Sat 12:41:00 AM 57.2783 -13.1904 104° East  Level FlightAware Approximate
Sat 12:41:47 AM 56.7170 -11.6940 102° East 497 572 37,000  Level FlightAware ADS-B
Sat 12:42:27 AM 56.6970 -11.5140 101° East 495 570 37,000  Level FlightAware ADS-B
Sat 12:43:07 AM 56.6780 -11.3520 102° East 494 568 37,000  Level FlightAware ADS-B
Sat 12:43:52 AM 56.6570 -11.1700 102° East 491 565 37,000  Level FlightAware ADS-B
Sat 12:44:32 AM 56.6380 -11.0110 102° East 490 564 37,000  Level FlightAware ADS-B
Sat 12:45:17 AM 56.6160 -10.8260 102° East 489 563 37,000  Level FlightAware ADS-B
Sat 12:45:57 AM 56.5970 -10.6630 102° East 488 562 37,000  Level FlightAware ADS-B
Sat 12:46:37 AM 56.5770 -10.5020 103° East 488 562 37,000  Level FlightAware ADS-B
Sat 12:47:22 AM 56.5550 -10.3230 103° East 487 560 37,000  Level FlightAware ADS-B
Sat 12:47:57 AM 56.5380 -10.1820 102° East 488 562 37,000  Level FlightAware ADS-B
Sat 12:48:42 AM 56.5130 -10.0060 104° East 485 558 37,000  Level FlightAware ADS-B
Sat 12:50:32 AM 56.4460 -9.5920 106° East 483 556 37,000  Level FlightAware ADS-B
Sat 12:51:42 AM 56.4010 -9.3200 107° East 483 556 37,000  Level FlightAware ADS-B
Sat 12:52:57 AM 56.3540 -9.0340 106° East 483 556 37,000 -1,000 Level FlightAware ADS-B
Sat 12:53:12 AM 56.3283 -8.9757 106° East 454 522 35,500 -2,727 Descending FlightAware UK
Sat 12:53:30 AM 56.3162 -8.9065 107° East 454 522 35,500  Level FlightAware UK
Sat 12:53:48 AM 56.3044 -8.8370 107° East 454 522 35,500 2,432 Level FlightAware UK
Sat 12:54:07 AM 56.3090 -8.7640 107° East 483 556 37,000 -167 Climbing FlightAware ADS-B
Sat 12:54:24 AM 56.2809 -8.6969 107° East 454 522 35,400 -2,743 Descending FlightAware UK
Sat 12:54:42 AM 56.2691 -8.6275 107° East 454 522 35,400 3,429 Level FlightAware UK
Sat 12:54:52 AM 56.2800 -8.5870 107° East 483 556 37,000 167 Climbing FlightAware ADS-B
Sat 12:55:18 AM 56.2451 -8.4893 107° East 454 522 35,500  Descending FlightAware UK
Sat 12:55:32 AM 56.2530 -8.4330 107° East 483 556 37,000  Climbing FlightAware ADS-B
Sat 12:55:54 AM 56.2211 -8.3509 107° East 454 522 35,500 -2,250 Descending FlightAware UK
Sat 12:56:12 AM 56.2091 -8.2816 107° East 454 522 35,500 5,000 Level FlightAware UK
Sat 12:56:12 AM 56.2270 -8.2760 107° East 483 556 37,000  Climbing FlightAware ADS-B
Sat 12:56:30 AM 56.1971 -8.2120 107° East 454 522 35,500 -2,500 Descending FlightAware UK
Sat 12:56:48 AM 56.1850 -8.1425 107° East 452 520 35,500 3,333 Level FlightAware UK
Sat 12:56:57 AM 56.1970 -8.1030 107° East 485 558 37,000  Climbing FlightAware ADS-B
Sat 12:57:12 AM 56.1689 -8.0503 107° East 452 520 35,500 -2,308 Descending FlightAware UK
Sat 12:57:36 AM 56.1526 -7.9584 108° East 450 518 35,500 3,600 Level FlightAware UK
Sat 12:57:37 AM 56.1700 -7.9480 108° East 486 559 37,000 -250 Climbing FlightAware ADS-B
Sat 12:58:00 AM 56.1360 -7.8666 108° East 452 520 35,400 -2,195 Descending FlightAware UK
Sat 12:58:18 AM 56.1235 -7.7977 108° East 452 520 35,500 4,364 Climbing FlightAware UK
Sat 12:58:22 AM 56.1400 -7.7750 108° East 487 560 37,000  Climbing FlightAware ADS-B
Sat 12:58:42 AM 56.1069 -7.7059 108° East 454 522 35,500 -2,368 Descending FlightAware UK
Sat 12:59:00 AM 56.0945 -7.6370 108° East 456 525 35,500 4,500 Level FlightAware UK
Sat 12:59:02 AM 56.1130 -7.6220 108° East 486 559 37,000  Climbing FlightAware ADS-B
Sat 12:59:18 AM 56.0820 -7.5682 108° East 456 525 35,500 -2,647 Descending FlightAware UK
Sat 12:59:36 AM 56.0695 -7.4993 108° East 454 522 35,500 3,750 Level FlightAware UK
Sat 12:59:42 AM 56.0850 -7.4630 108° East 487 560 37,000  Climbing FlightAware ADS-B
Sat 01:00:00 AM 56.0528 -7.4068 108° East 454 522 35,500 -2,500 Descending FlightAware UK
Sat 01:00:18 AM 56.0401 -7.3382 108° East 454 522 35,500 3,333 Level FlightAware UK
Sat 01:00:27 AM 56.0540 -7.2920 108° East 487 560 37,000  Climbing FlightAware ADS-B
Sat 01:00:42 AM 56.0232 -7.2466 108° East 454 522 35,500 -2,308 Descending FlightAware UK
Sat 01:01:06 AM 56.0064 -7.1551 108° East 454 522 35,500 3,600 Level FlightAware UK
Sat 01:01:07 AM 56.0260 -7.1380 108° East 484 557 37,000  Climbing FlightAware ADS-B
Sat 01:01:24 AM 55.9937 -7.0866 108° East 454 522 35,500 -2,571 Descending FlightAware UK
Sat 01:01:42 AM 55.9810 -7.0181 108° East 454 522 35,500 3,214 Level FlightAware UK
Sat 01:01:52 AM 55.9950 -6.9660 108° East 487 560 37,000  Climbing FlightAware ADS-B
Sat 01:02:12 AM 55.9601 -6.9029 108° East 456 525 35,500 -2,368 Descending FlightAware UK
Sat 01:02:30 AM 55.9480 -6.8350 108° East 456 525 35,500 4,500 Level FlightAware UK
Sat 01:02:32 AM 55.9680 -6.8120 108° East 487 560 37,000  Climbing FlightAware ADS-B
Sat 01:02:48 AM 55.9354 -6.7656 108° East 458 527 35,500 -2,647 Descending FlightAware UK
Sat 01:03:06 AM 55.9231 -6.6970 108° East 458 527 35,500 3,750 Level FlightAware UK
Sat 01:03:12 AM 55.9410 -6.6570 108° East 486 559 37,000  Climbing FlightAware ADS-B
Sat 01:03:42 AM 55.8982 -6.5602 108° East 456 525 35,500  Descending FlightAware UK
Sat 01:03:57 AM 55.9100 -6.4860 108° East 486 559 37,000  Climbing FlightAware ADS-B
Sat 01:04:12 AM 55.8772 -6.4466 108° East 454 522 35,500 -2,727 Descending FlightAware UK
Sat 01:04:30 AM 55.8645 -6.3786 108° East 454 522 35,500 3,600 Level FlightAware UK
Sat 01:04:37 AM 55.8820 -6.3330 108° East 483 556 37,000  Climbing FlightAware ADS-B
Sat 01:04:54 AM 55.8469 -6.2875 108° East 452 520 35,500 -2,743 Descending FlightAware UK
Sat 01:05:12 AM 55.8334 -6.2209 110° East 452 520 35,400 3,214 Descending FlightAware UK
Sat 01:05:22 AM 55.8500 -6.1660 110° East 486 559 37,000  Climbing FlightAware ADS-B
Sat 01:05:42 AM 55.8103 -6.1080 110° East 452 520 35,400  Descending FlightAware UK
Sat 01:05:57 AM 55.8230 -6.0340 110° East 485 558 37,000  Climbing FlightAware ADS-B
Sat 01:06:00 AM 55.7964 -6.0408 110° East 454 522 35,400 -6,400 Descending FlightAware UK
Sat 01:06:12 AM 55.7872 -5.9961 110° East 452 520 35,400  Level FlightAware UK
Sat 01:06:30 AM 55.7735 -5.9288 110° East 454 522 35,400 3,200 Level FlightAware UK
Sat 01:06:42 AM 55.7900 -5.8670 110° East 487 560 37,000  Climbing FlightAware ADS-B
Sat 01:07:12 AM 55.7411 -5.7718 110° East 452 520 35,400  Descending FlightAware UK
Sat 01:07:27 AM 55.7560 -5.6980 110° East 488 562 37,000  Climbing FlightAware ADS-B
Sat 01:07:42 AM 55.7180 -5.6595 110° East 452 520 35,400 -2,909 Descending FlightAware UK
Sat 01:08:00 AM 55.7043 -5.5920 110° East 454 522 35,400 3,840 Level FlightAware UK
Sat 01:08:07 AM 55.7260 -5.5480 110° East 488 562 37,000  Climbing FlightAware ADS-B
Sat 01:08:25 AM 55.6858 -5.5013 110° East 456 525 35,400 -2,500 Descending FlightAware UK
Sat 01:08:43 AM 55.6720 -5.4338 110° East 456 525 35,500 4,364 Climbing FlightAware UK
Sat 01:08:47 AM 55.6960 -5.3980 110° East 489 563 37,000 -250 Climbing FlightAware ADS-B
Sat 01:09:07 AM 55.6538 -5.3437 110° East 456 525 35,400  Descending FlightAware UK
Sat 01:09:17 AM 55.6730 -5.2850 110° East 489 563 37,000  Climbing FlightAware ADS-B
Sat 01:09:37 AM 55.6307 -5.2313 110° East 454 522 35,400 -2,182 Descending FlightAware UK
Sat 01:10:01 AM 55.6120 -5.1416 110° East 454 522 35,400 3,840 Level FlightAware UK
Sat 01:10:02 AM 55.6400 -5.1180 110° East 488 562 37,000  Climbing FlightAware ADS-B
Sat 01:10:19 AM 55.5981 -5.0744 110° East 456 525 35,400 -2,571 Descending FlightAware UK
Sat 01:10:37 AM 55.5841 -5.0073 110° East 454 522 35,500 4,174 Climbing FlightAware UK
Sat 01:10:42 AM 55.6090 -4.9670 110° East 487 560 37,000 -261 Climbing FlightAware ADS-B
Sat 01:11:00 AM 55.5656 -4.9184 110° East 454 522 35,400 -2,595 Descending FlightAware UK
Sat 01:11:19 AM 55.5514 -4.8504 110° East 454 522 35,400 4,364 Level FlightAware UK
Sat 01:11:22 AM 55.5790 -4.8190 110° East 487 560 37,000 333 Climbing FlightAware ADS-B
Sat 01:11:37 AM 55.5375 -4.7832 110° East 454 522 35,500 -2,462 Descending FlightAware UK
Sat 01:12:01 AM 55.5186 -4.6936 110° East 454 522 35,400 3,000 Descending FlightAware UK
Sat 01:12:07 AM 55.5430 -4.6480 110° East 488 562 37,000  Climbing FlightAware ADS-B
Sat 01:12:31 AM 55.4950 -4.5814 110° East 454 522 35,400  Descending FlightAware UK
Sat 01:12:47 AM 55.5130 -4.5000 110° East 489 563 37,000  Climbing FlightAware ADS-B
Sat 01:12:49 AM 55.4806 -4.5134 110° East 456 525 35,400 -4,800 Descending FlightAware UK
Sat 01:13:07 AM 55.4663 -4.4464 110° East 456 525 35,400  Level FlightAware UK
Sat 01:13:25 AM 55.4519 -4.3793 111° Southeast 454 522 35,400 4,800 Level FlightAware UK
Sat 01:13:27 AM 55.4810 -4.3490 111° Southeast 488 562 37,000 333 Climbing FlightAware ADS-B
Sat 01:13:43 AM 55.4375 -4.3125 111° Southeast 462 532 35,500 -2,824 Descending FlightAware UK
Sat 01:14:01 AM 55.4230 -4.2446 111° Southeast 460 529 35,400 3,103 Descending FlightAware UK
Sat 01:14:12 AM 55.4450 -4.1810 111° Southeast 488 562 37,000  Climbing FlightAware ADS-B
Sat 01:14:31 AM 55.3988 -4.1340 111° Southeast 460 529 35,400 -2,595 Descending FlightAware UK
Sat 01:14:49 AM 55.3841 -4.0665 111° Southeast 458 527 35,400 4,571 Level FlightAware UK
Sat 01:14:52 AM 55.4130 -4.0280 111° Southeast 487 560 37,000  Climbing FlightAware ADS-B
Sat 01:15:13 AM 55.3649 -3.9784 111° Southeast 460 529 35,400 -2,133 Descending FlightAware UK
Sat 01:15:37 AM 55.3453 -3.8900 111° Southeast 456 525 35,400 4,000 Level FlightAware UK
Sat 01:15:37 AM 55.3770 -3.8620 111° Southeast 486 559 37,000 333 Climbing FlightAware ADS-B
Sat 01:15:55 AM 55.3309 -3.8236 111° Southeast 456 525 35,500 -2,667 Descending FlightAware UK
Sat 01:16:13 AM 55.3162 -3.7569 111° Southeast 456 525 35,400 4,091 Descending FlightAware UK
Sat 01:16:17 AM 55.3450 -3.7170 111° Southeast 488 562 37,000  Climbing FlightAware ADS-B
Sat 01:16:43 AM 55.2920 -3.6466 111° Southeast 456 525 35,400  Descending FlightAware UK
Sat 01:17:02 AM 55.3090 -3.5480 111° Southeast 487 560 37,000  Climbing FlightAware ADS-B
Sat 01:17:19 AM 55.2627 -3.5148 111° Southeast 456 525 35,400 -2,571 Descending FlightAware UK
Sat 01:17:37 AM 55.2481 -3.4483 111° Southeast 456 525 35,500 4,174 Climbing FlightAware UK
Sat 01:17:42 AM 55.2760 -3.3980 111° Southeast 483 556 37,000  Climbing FlightAware ADS-B
Sat 01:18:01 AM 55.2289 -3.3616 111° Southeast 454 522 35,500 -2,432 Descending FlightAware UK
Sat 01:18:19 AM 55.2143 -3.2950 111° Southeast 452 520 35,500 4,286 Level FlightAware UK
Sat 01:18:22 AM 55.2450 -3.2570 111° Southeast 486 559 37,000  Climbing FlightAware ADS-B
Sat 01:18:37 AM 55.1996 -3.2287 111° Southeast 454 522 35,500 -2,727 Descending FlightAware UK
Sat 01:18:55 AM 55.1849 -3.1632 111° Southeast 450 518 35,500 3,000 Level FlightAware UK
Sat 01:19:07 AM 55.2090 -3.0920 111° Southeast 486 559 37,000 -200 Climbing FlightAware ADS-B
Sat 01:19:25 AM 55.1603 -3.0545 111° Southeast 452 520 35,400 -2,500 Descending FlightAware UK
Sat 01:19:43 AM 55.1454 -2.9896 112° Southeast 452 520 35,500 4,364 Climbing FlightAware UK
Sat 01:19:47 AM 55.1760 -2.9450 112° Southeast 485 558 37,000  Climbing FlightAware ADS-B
Sat 01:20:07 AM 55.1257 -2.9028 112° Southeast 452 520 35,500 -2,368 Descending FlightAware UK
Sat 01:20:25 AM 55.1111 -2.8384 112° Southeast 452 520 35,500 3,600 Level FlightAware UK
Sat 01:20:32 AM 55.1390 -2.7810 112° Southeast 484 557 37,000  Climbing FlightAware ADS-B
Sat 01:20:55 AM 55.0862 -2.7293 112° Southeast 454 522 35,500  Descending FlightAware UK
Sat 01:21:07 AM 55.1100 -2.6550 112° Southeast 485 558 37,000  Climbing FlightAware ADS-B
Sat 01:21:13 AM 55.0712 -2.6643 112° Southeast 454 522 35,500 -5,000 Descending FlightAware UK
Sat 01:21:25 AM 55.0613 -2.6210 112° Southeast 454 522 35,500  Level FlightAware UK
Sat 01:21:43 AM 55.0465 -2.5568 112° Southeast 454 522 35,500 3,333 Level FlightAware UK
Sat 01:21:52 AM 55.0720 -2.4870 112° Southeast 481 554 37,000  Climbing FlightAware ADS-B
Sat 01:22:07 AM 55.0260 -2.4699 112° Southeast 454 522 35,500 -2,727 Descending FlightAware UK
Sat 01:22:25 AM 55.0107 -2.4054 112° Southeast 454 522 35,500 3,000 Level FlightAware UK
Sat 01:22:37 AM 55.0350 -2.3340 112° Southeast 482 555 37,000  Climbing FlightAware ADS-B
Sat 01:23:01 AM 54.9800 -2.2765 112° Southeast 456 525 35,500  Descending FlightAware UK
Sat 01:23:17 AM 55.0000 -2.1830 113° Southeast 484 557 37,000  Climbing FlightAware ADS-B
Sat 01:23:20 AM 54.9645 -2.2115 113° Southeast 456 525 35,500 -6,000 Descending FlightAware UK
Sat 01:23:32 AM 54.9543 -2.1685 113° Southeast 458 527 35,500  Level FlightAware UK
Sat 01:23:50 AM 54.9390 -2.1042 112° Southeast 460 529 35,500 3,600 Level FlightAware UK
Sat 01:23:57 AM 54.9660 -2.0390 112° Southeast 483 556 37,000  Climbing FlightAware ADS-B
Sat 01:24:14 AM 54.9186 -2.0186 112° Southeast 456 525 35,500 -2,571 Descending FlightAware UK
Sat 01:24:32 AM 54.9033 -1.9546 113° Southeast 454 522 35,500 3,214 Level FlightAware UK
Sat 01:24:42 AM 54.9270 -1.8770 113° Southeast 482 555 37,000  Climbing FlightAware ADS-B
Sat 01:25:08 AM 54.8722 -1.8262 113° Southeast 454 522 35,500  Descending FlightAware UK
Sat 01:25:22 AM 54.8920 -1.7330 113° Southeast 482 555 37,000  Climbing FlightAware ADS-B
Sat 01:25:38 AM 54.8463 -1.7192 113° Southeast 454 522 35,500 -2,647 Descending FlightAware UK
Sat 01:25:56 AM 54.8310 -1.6562 113° Southeast 454 522 35,500 3,103 Level FlightAware UK
Sat 01:26:07 AM 54.8520 -1.5700 113° Southeast 482 555 37,000  Climbing FlightAware ADS-B
Sat 01:26:32 AM 54.7998 -1.5283 113° Southeast 456 525 35,500  Descending FlightAware UK
Sat 01:26:47 AM 54.8170 -1.4270 113° Southeast 481 554 37,000  Climbing FlightAware ADS-B
Sat 01:27:02 AM 54.7739 -1.4217 113° Southeast 456 525 35,500 -2,727 Descending FlightAware UK
Sat 01:27:20 AM 54.7586 -1.3590 113° Southeast 456 525 35,500 3,600 Level FlightAware UK
Sat 01:27:27 AM 54.7830 -1.2860 113° Southeast 479 551 37,000  Climbing FlightAware ADS-B
Sat 01:27:44 AM 54.7379 -1.2746 113° Southeast 454 522 35,500  Descending FlightAware UK
Sat 01:28:07 AM 54.7480 -1.1430 113° Southeast 480 552 37,000  Climbing FlightAware ADS-B
Sat 01:28:08 AM 54.7175 -1.1910 113° Southeast 454 522 35,500 -4,737 Descending FlightAware UK
Sat 01:28:26 AM 54.7018 -1.1272 113° Southeast 454 522 35,500  Level FlightAware UK
Sat 01:28:50 AM 54.6810 -1.0433 113° Southeast 454 522 35,500 3,462 Level FlightAware UK
Sat 01:28:52 AM 54.7110 -0.9920 113° Southeast 479 551 37,000  Climbing FlightAware ADS-B
Sat 01:29:14 AM 54.6600 -0.9588 113° Southeast 454 522 35,500 -2,250 Descending FlightAware UK
Sat 01:29:32 AM 54.6442 -0.8961 114° Southeast 452 520 35,500 3,913 Level FlightAware UK
Sat 01:29:37 AM 54.6700 -0.8300 114° Southeast 478 550 37,000  Climbing FlightAware ADS-B
Sat 01:29:56 AM 54.6230 -0.8119 114° Southeast 454 522 35,500 -2,432 Descending FlightAware UK
Sat 01:30:14 AM 54.6074 -0.7499 114° Southeast 454 522 35,500 4,286 Level FlightAware UK
Sat 01:30:17 AM 54.6350 -0.6910 114° Southeast 478 550 37,000  Climbing FlightAware ADS-B
Sat 01:30:32 AM 54.5914 -0.6867 114° Southeast 454 522 35,500 -2,727 Descending FlightAware UK
Sat 01:30:50 AM 54.5757 -0.6250 114° Southeast 454 522 35,500 3,600 Level FlightAware UK
Sat 01:30:57 AM 54.5990 -0.5510 114° Southeast 478 550 37,000  Climbing FlightAware ADS-B
Sat 01:31:14 AM 54.5544 -0.5412 114° Southeast 454 522 35,500 -2,571 Descending FlightAware UK
Sat 01:31:32 AM 54.5386 -0.4797 114° Southeast 452 520 35,500 3,214 Level FlightAware UK
Sat 01:31:42 AM 54.5590 -0.3960 114° Southeast 478 550 37,000  Climbing FlightAware ADS-B
Sat 01:32:02 AM 54.5117 -0.3755 114° Southeast 452 520 35,500 -2,368 Descending FlightAware UK
Sat 01:32:20 AM 54.4955 -0.3136 114° Southeast 452 520 35,500 3,600 Level FlightAware UK
Sat 01:32:27 AM 54.5180 -0.2410 114° Southeast 477 549 37,000  Climbing FlightAware ADS-B
Sat 01:32:45 AM 54.4736 -0.2304 114° Southeast 454 522 35,500  Descending FlightAware UK
Sat 01:33:07 AM 54.4810 -0.1000 114° Southeast 477 549 37,000  Climbing FlightAware ADS-B
Sat 01:33:26 AM 54.4360 -0.0867 114° Southeast 454 522 35,500 -2,368 Descending FlightAware UK
Sat 01:33:45 AM 54.4197 -0.0242 114° Southeast 456 525 35,500 4,286 Level FlightAware UK
Sat 01:33:47 AM 54.4450 0.0360 114° Southeast 476 548 37,000  Climbing FlightAware ADS-B
Sat 01:34:03 AM 54.4037 0.0377 114° Southeast 458 527 35,500  Descending FlightAware UK
Sat 01:34:32 AM 54.4050 0.1880 114° Southeast 475 547 37,000  Climbing FlightAware ADS-B
Sat 01:34:51 AM 54.3608 0.2027 114° Southeast 456 525 35,500 -2,432 Descending FlightAware UK
Sat 01:35:09 AM 54.3447 0.2640 114° Southeast 456 525 35,500 4,286 Level FlightAware UK
Sat 01:35:12 AM 54.3690 0.3240 114° Southeast 473 544 37,000  Climbing FlightAware ADS-B
Sat 01:35:39 AM 54.3176 0.3667 114° Southeast 456 525 35,500  Descending FlightAware UK
Sat 01:35:57 AM 54.3270 0.4800 114° Southeast 472 543 37,000  Climbing FlightAware ADS-B
Sat 01:36:15 AM 54.2852 0.4886 114° Southeast 458 527 35,500 -2,500 Descending FlightAware UK
Sat 01:36:33 AM 54.2688 0.5501 115° Southeast 458 527 35,500 4,091 Level FlightAware UK
Sat 01:36:37 AM 54.2910 0.6120 115° Southeast 471 542 37,000  Climbing FlightAware ADS-B
Sat 01:37:03 AM 54.2419 0.6503 115° Southeast 456 525 35,500  Descending FlightAware UK
Sat 01:37:17 AM 54.2540 0.7480 115° Southeast 468 539 37,000  Climbing FlightAware ADS-B
Sat 01:37:21 AM 54.2258 0.7099 115° Southeast 456 525 35,500 -5,625 Descending FlightAware UK
Sat 01:37:33 AM 54.2147 0.7507 115° Southeast 458 527 35,500  Level FlightAware UK
Sat 01:37:51 AM 54.1984 0.8106 115° Southeast 458 527 35,500 3,103 Level FlightAware UK
Sat 01:38:02 AM 54.2150 0.8890 115° Southeast 466 536 37,000  Climbing FlightAware ADS-B
Sat 01:38:21 AM 54.1710 0.9108 115° Southeast 458 527 35,500 -2,432 Descending FlightAware UK
Sat 01:38:39 AM 54.1545 0.9701 116° Southeast 456 525 35,500 4,286 Level FlightAware UK
Sat 01:38:42 AM 54.1760 1.0230 116° Southeast 465 535 37,000  Climbing FlightAware ADS-B
Sat 01:38:57 AM 54.1357 1.0269 116° Southeast 456 525 35,500 -2,727 Descending FlightAware UK
Sat 01:39:15 AM 54.1162 1.0836 120° Southeast 454 522 35,500  Level FlightAware UK
Sat 01:39:33 AM 54.0959 1.1405 121° Southeast 454 522 35,500 4,091 Level FlightAware UK
Sat 01:39:37 AM 54.1140 1.2030 121° Southeast 464 534 37,000  Climbing FlightAware ADS-B
Sat 01:39:57 AM 54.0683 1.2132 121° Southeast 452 520 35,500 -2,368 Descending FlightAware UK
Sat 01:40:15 AM 54.0472 1.2679 123° Southeast 454 522 35,500 3,600 Level FlightAware UK
Sat 01:40:22 AM 54.0620 1.3350 123° Southeast 463 533 37,000  Climbing FlightAware ADS-B
Sat 01:40:39 AM 54.0191 1.3408 123° Southeast 452 520 35,500  Descending FlightAware UK
Sat 01:40:57 AM 54.0210 1.4410 123° Southeast 461 531 37,000  Climbing FlightAware ADS-B
Sat 01:41:03 AM 53.9909 1.4138 123° Southeast 452 520 35,500 -3,600 Descending FlightAware UK
Sat 01:41:22 AM 53.9697 1.4686 123° Southeast 450 518 35,500  Level FlightAware UK
Sat 01:41:39 AM 53.9490 1.5221 123° Southeast 450 518 35,500 4,500 Level FlightAware UK
Sat 01:41:42 AM 53.9690 1.5740 123° Southeast 460 529 37,000  Climbing FlightAware ADS-B
Sat 01:41:57 AM 53.9280 1.5762 123° Southeast 450 518 35,500 -2,647 Descending FlightAware UK
Sat 01:42:16 AM 53.9070 1.6310 123° Southeast 452 520 35,500 3,000 Level FlightAware UK
Sat 01:42:27 AM 53.9170 1.7060 123° Southeast 459 528 37,000  Climbing FlightAware ADS-B
Sat 01:42:45 AM 53.8724 1.7201 123° Southeast 452 520 35,500 -2,500 Descending FlightAware UK
Sat 01:43:03 AM 53.8515 1.7737 123° Southeast 450 518 35,500 4,091 Level FlightAware UK
Sat 01:43:07 AM 53.8710 1.8230 123° Southeast 457 526 37,000  Climbing FlightAware ADS-B
Sat 01:43:28 AM 53.8234 1.8457 123° Southeast 448 516 35,500  Descending FlightAware UK
Sat 01:43:52 AM 53.8170 1.9580 123° Southeast 452 520 37,000  Climbing FlightAware ADS-B
Sat 01:44:09 AM 53.7750 1.9699 123° Southeast 450 518 35,500 -2,500 Descending FlightAware UK
Sat 01:44:28 AM 53.7540 2.0238 123° Southeast 450 518 35,500 3,913 Level FlightAware UK
Sat 01:44:32 AM 53.7720 2.0710 123° Southeast 456 525 37,000  Climbing FlightAware ADS-B
Sat 01:44:52 AM 53.7262 2.0949 123° Southeast 450 518 35,500 -2,432 Descending FlightAware UK
Sat 01:45:09 AM 53.7056 2.1475 124° Southeast 448 516 35,500 3,600 Level FlightAware UK
Sat 01:45:17 AM 53.7180 2.2060 124° Southeast 455 524 37,000  Climbing FlightAware ADS-B
Sat 01:45:40 AM 53.6705 2.2363 124° Southeast 448 516 35,500  Descending FlightAware UK
Sat 01:45:52 AM 53.6730 2.3180 124° Southeast 455 524 37,000  Climbing FlightAware ADS-B
Sat 01:46:10 AM 53.6355 2.3251 124° Southeast 448 516 35,500 -2,143 Descending FlightAware UK
Sat 01:46:34 AM 53.6075 2.3955 124° Southeast 450 518 35,500 3,333 Level FlightAware UK
Sat 01:46:37 AM 53.6200 2.4500 124° Southeast 454 522 37,000  Climbing FlightAware ADS-B
Sat 01:46:52 AM 53.5868 2.4476 124° Southeast 450 518 35,500 -2,727 Descending FlightAware UK
Sat 01:47:10 AM 53.5656 2.5010 124° Southeast 450 518 35,500 3,000 Level FlightAware UK
Sat 01:47:22 AM 53.5680 2.5780 124° Southeast 452 520 37,000  Climbing FlightAware ADS-B
Sat 01:47:40 AM 53.5310 2.5889 124° Southeast 454 522 35,500 -2,500 Descending FlightAware UK
Sat 01:47:58 AM 53.5101 2.6414 124° Southeast 454 522 35,500 4,091 Level FlightAware UK
Sat 01:48:02 AM 53.5200 2.6960 124° Southeast 452 520 37,000 2,045 Climbing FlightAware ADS-B
Sat 01:48:42 AM 53.4760 2.8060 124° Southeast 451 519 37,000 -1,452 Level FlightAware ADS-B
Sat 01:49:04 AM 53.4331 2.8334 124° Southeast 454 522 35,500 -2,250 Descending FlightAware UK
Sat 01:49:22 AM 53.4122 2.8853 124° Southeast 454 522 35,500 5,000 Level FlightAware UK
Sat 01:49:22 AM 53.4280 2.9220 124° Southeast 450 518 37,000  Climbing FlightAware ADS-B
Sat 01:49:40 AM 53.3911 2.9370 124° Southeast 454 522 35,500 -2,500 Descending FlightAware UK
Sat 01:49:58 AM 53.3688 2.9881 126° Southeast 456 525 35,500 3,333 Level FlightAware UK
Sat 01:50:07 AM 53.3730 3.0480 126° Southeast 451 519 37,000  Climbing FlightAware ADS-B
Sat 01:50:28 AM 53.3310 3.0705 126° Southeast 456 525 35,500  Descending FlightAware UK
Sat 01:50:52 AM 53.3150 3.1730 126° Southeast 450 518 37,000  Climbing FlightAware ADS-B
Sat 01:51:22 AM 53.2615 3.2189 126° Southeast 450 518 35,500  Descending FlightAware UK
Sat 01:51:32 AM 53.2600 3.2870 126° Southeast 450 518 37,000  Climbing FlightAware ADS-B
Sat 01:51:52 AM 53.2224 3.3011 126° Southeast 448 516 35,500 -2,368 Descending FlightAware UK
Sat 01:52:10 AM 53.1992 3.3501 128° Southeast 446 513 35,500 4,500 Level FlightAware UK
Sat 01:52:12 AM 53.2080 3.3950 128° Southeast 451 519 37,000  Climbing FlightAware ADS-B
Sat 01:52:28 AM 53.1760 3.3992 128° Southeast 446 513 35,500 -2,647 Descending FlightAware UK
Sat 01:52:46 AM 53.1530 3.4487 128° Southeast 450 518 35,500 3,103 Level FlightAware UK
Sat 01:52:57 AM 53.1500 3.5170 128° Southeast 452 520 37,000  Climbing FlightAware ADS-B
Sat 01:53:29 AM 53.0987 3.5643 128° Southeast 448 516 35,500  Descending FlightAware UK
Sat 01:53:37 AM 53.0990 3.6240 128° Southeast 454 522 37,000  Climbing FlightAware ADS-B
Sat 01:53:53 AM 53.0677 3.6301 128° Southeast 450 518 35,500 -2,647 Descending FlightAware UK
Sat 01:54:11 AM 53.0443 3.6794 128° Southeast 450 518 35,500 3,103 Level FlightAware UK
Sat 01:54:22 AM 53.0390 3.7480 128° Southeast 455 524 37,000  Climbing FlightAware ADS-B
Sat 01:54:53 AM 52.9892 3.7941 128° Southeast 450 518 35,500  Descending FlightAware UK
Sat 01:55:02 AM 52.9860 3.8560 128° Southeast 455 524 37,000  Climbing FlightAware ADS-B
Sat 01:55:23 AM 52.9497 3.8769 128° Southeast 454 522 35,500 -2,308 Descending FlightAware UK
Sat 01:55:41 AM 52.9265 3.9257 128° Southeast 460 529 35,500 3,750 Level FlightAware UK
Sat 01:55:47 AM 52.9290 3.9740 128° Southeast 456 525 37,000  Climbing FlightAware ADS-B
Sat 01:56:11 AM 52.8865 4.0079 128° Southeast 456 525 35,500  Descending FlightAware UK
Sat 01:56:27 AM 52.8760 4.0810 128° Southeast 457 526 37,000  Climbing FlightAware ADS-B
Sat 01:56:53 AM 52.8307 4.1222 128° Southeast 454 522 35,500  Descending FlightAware UK
Sat 01:57:07 AM 52.8210 4.1930 128° Southeast 457 526 37,000 -200 Climbing FlightAware ADS-B
Sat 01:57:23 AM 52.7910 4.2038 128° Southeast 462 532 35,400 -2,824 Descending FlightAware UK
Sat 01:57:41 AM 52.7671 4.2528 129° Southeast 462 532 35,400 3,310 Level FlightAware UK
Sat 01:57:52 AM 52.7600 4.3160 129° Southeast 457 526 37,000 200 Climbing FlightAware ADS-B
Sat 01:58:11 AM 52.7273 4.3342 129° Southeast 460 529 35,500 -2,432 Descending FlightAware UK
Sat 01:58:29 AM 52.7035 4.3831 129° Southeast 458 527 35,500 4,286 Level FlightAware UK
Sat 01:58:32 AM 52.7060 4.4240 129° Southeast 456 525 37,000  Climbing FlightAware ADS-B
Sat 01:58:47 AM 52.6795 4.4318 129° Southeast 458 527 35,500 -2,727 Descending FlightAware UK
Sat 01:59:05 AM 52.6557 4.4806 129° Southeast 460 529 35,500 3,000 Level FlightAware UK
Sat 01:59:17 AM 52.6490 4.5400 129° Southeast 456 525 37,000  Climbing FlightAware ADS-B
Sat 01:59:35 AM 52.6157 4.5618 129° Southeast 458 527 35,500  Descending FlightAware UK
Sat 01:59:57 AM 52.5930 4.6510 129° Southeast 457 526 37,000  Climbing FlightAware ADS-B
Sat 02:00:23 AM 52.5517 4.6917 129° Southeast 462 532 35,500  Descending FlightAware UK
Sat 02:00:37 AM 52.5410 4.7540 129° Southeast 456 525 37,000  Climbing FlightAware ADS-B
Sat 02:01:11 AM 52.4879 4.8210 129° Southeast 462 532 35,500  Descending FlightAware UK
Sat 02:01:22 AM 52.4790 4.8770 129° Southeast 456 525 37,000  Climbing FlightAware ADS-B
Sat 02:01:41 AM 52.4481 4.9017 129° Southeast 460 529 35,500  Descending FlightAware UK
Sat 02:02:02 AM 52.4270 4.9820 129° Southeast 457 526 37,000 1,475 Climbing FlightAware ADS-B
Sat 02:02:42 AM 52.3720 5.0900 130° Southeast 457 526 37,000 -1,684 Level FlightAware ADS-B
Sat 02:02:59 AM 52.3424 5.1101 130° Southeast 458 527 35,400 -2,743 Descending FlightAware UK
Sat 02:03:17 AM 52.3183 5.1585 129° Southeast 458 527 35,400 3,429 Level FlightAware UK
Sat 02:03:27 AM 52.3130 5.2060 129° Southeast 457 526 37,000 1,920 Climbing FlightAware ADS-B
Sat 02:04:07 AM 52.2570 5.3160 130° Southeast 459 528 37,000  Level FlightAware ADS-B
Sat 02:04:52 AM 52.1950 5.4380 130° Southeast 458 527 37,000 -1,286 Level FlightAware ADS-B
Sat 02:05:17 AM 52.1564 5.4791 130° Southeast 466 536 35,500  Descending FlightAware UK
Sat 02:05:32 AM 52.1430 5.5380 130° Southeast 458 527 37,000 1,500 Climbing FlightAware ADS-B
Sat 02:06:17 AM 52.0830 5.6560 130° Southeast 458 527 37,000  Level FlightAware ADS-B
Sat 02:06:57 AM 52.0280 5.7610 130° Southeast 456 525 37,000  Level FlightAware ADS-B
Sat 02:07:37 AM 51.9750 5.8630 130° Southeast 455 524 37,000  Level FlightAware ADS-B
Sat 02:08:22 AM 51.9110 5.9860 130° Southeast 454 522 37,000  Level FlightAware ADS-B
Sat 02:09:02 AM 51.8580 6.0880 130° Southeast 453 521 37,000  Level FlightAware ADS-B
Sat 02:09:47 AM 51.7950 6.1950 134° Southeast 449 517 37,000  Level FlightAware ADS-B
Sat 02:10:27 AM 51.7400 6.2840 135° Southeast 448 516 37,000  Level FlightAware ADS-B
Sat 02:11:07 AM 51.6770 6.3840 135° Southeast 445 512 37,000  Level FlightAware ADS-B
Sat 02:11:52 AM 51.6140 6.4840 135° Southeast 444 511 37,000  Level FlightAware ADS-B
Sat 02:12:32 AM 51.5530 6.5800 136° Southeast 442 509 37,000  Level FlightAware ADS-B
Sat 02:13:17 AM 51.4900 6.6790 136° Southeast 441 507 37,000  Level FlightAware ADS-B
Sat 02:13:57 AM 51.4310 6.7700 136° Southeast 440 506 37,000  Level FlightAware ADS-B
Sat 02:14:37 AM 51.3720 6.8640 135° Southeast 439 505 37,000  Level FlightAware ADS-B
Sat 02:15:22 AM 51.3060 6.9660 136° Southeast 438 504 37,000  Level FlightAware ADS-B
Sat 02:16:02 AM 51.2470 7.0580 136° Southeast 438 504 37,000  Level FlightAware ADS-B
Sat 02:16:37 AM 51.2010 7.1310 135° Southeast 437 503 37,000  Level FlightAware ADS-B
Sat 02:17:27 AM 51.1220 7.2520 136° Southeast 438 504 37,000  Level FlightAware ADS-B
Sat 02:18:07 AM 51.0650 7.3400 136° Southeast 438 504 37,000  Level FlightAware ADS-B
Sat 02:18:47 AM 51.0070 7.4290 136° Southeast 439 505 37,000  Level FlightAware ADS-B
Sat 02:19:32 AM 50.9460 7.5240 136° Southeast 439 505 37,000  Level FlightAware ADS-B
Sat 02:20:12 AM 50.8840 7.6170 137° Southeast 439 505 37,000  Level FlightAware ADS-B
Sat 02:20:57 AM 50.8220 7.7120 136° Southeast 439 505 37,000  Level FlightAware ADS-B
Sat 02:21:37 AM 50.7610 7.8040 136° Southeast 439 505 37,000  Level FlightAware ADS-B
Sat 02:22:22 AM 50.6930 7.9080 136° Southeast 439 505 37,000 -457 Level FlightAware ADS-B
Sat 02:23:22 AM 50.6140 8.0270 136° Southeast 425 489 36,200 -927 Descending FlightAware ADS-B
Sat 02:24:12 AM 50.5390 8.1390 136° Southeast 440 506 35,300 -847 Descending FlightAware ADS-B
Sat 02:24:47 AM 50.4910 8.2100 137° Southeast 448 516 35,000 -225 Descending FlightAware ADS-B
Sat 02:25:32 AM 50.4190 8.3170 137° Southeast 451 519 35,000  Level FlightAware ADS-B
Sat 02:26:17 AM 50.3510 8.4190 136° Southeast 446 513 35,000  Level FlightAware ADS-B
Sat 02:26:57 AM 50.2920 8.5060 137° Southeast 443 510 35,000  Level FlightAware ADS-B
Sat 02:27:42 AM 50.2210 8.6110 137° Southeast 439 505 35,000  Level FlightAware ADS-B
Sat 02:28:22 AM 50.1640 8.6940 137° Southeast 441 507 35,000  Level FlightAware ADS-B
Sat 02:29:02 AM 50.1040 8.7820 137° Southeast 441 507 35,000  Level FlightAware ADS-B
Sat 02:29:47 AM 50.0340 8.8830 137° Southeast 440 506 35,000  Level FlightAware ADS-B
Sat 02:30:32 AM 49.9670 8.9780 138° Southeast 440 506 35,000  Level FlightAware ADS-B
Sat 02:31:12 AM 49.9070 9.0630 138° Southeast 440 506 35,000  Level FlightAware ADS-B
Sat 02:31:52 AM 49.8460 9.1510 137° Southeast 439 505 35,000  Level FlightAware ADS-B
Sat 02:32:37 AM 49.7840 9.2380 138° Southeast 436 502 35,000 -988 Level FlightAware ADS-B
Sat 02:33:17 AM 49.7210 9.3280 137° Southeast 441 507 33,600 -1,835 Descending FlightAware ADS-B
Sat 02:34:02 AM 49.6530 9.4230 138° Southeast 417 480 32,400 -2,188 Descending FlightAware ADS-B
Sat 02:34:42 AM 49.6010 9.5080 133° Southeast 423 487 30,500 -2,653 Descending FlightAware ADS-B
Sat 02:35:37 AM 49.5300 9.6340 131° Southeast 424 488 28,200 -2,220 Descending FlightAware ADS-B
Sat 02:36:22 AM 49.4700 9.7400 131° Southeast 414 476 26,800 -1,906 Descending FlightAware ADS-B
Sat 02:37:02 AM 49.4210 9.8270 131° Southeast 406 467 25,500 -1,950 Descending FlightAware ADS-B
Sat 02:37:42 AM 49.3720 9.9130 131° Southeast 400 460 24,200 -1,906 Descending FlightAware ADS-B
Sat 02:38:27 AM 49.3230 9.9990 131° Southeast 397 457 22,800 -1,976 Descending FlightAware ADS-B
Sat 02:39:07 AM 49.2740 10.0820 132° Southeast 395 455 21,400 -1,950 Descending FlightAware ADS-B
Sat 02:39:47 AM 49.2230 10.1710 131° Southeast 390 449 20,200 -1,728 Descending FlightAware ADS-B
Sat 02:41:12 AM 49.1270 10.3340 132° Southeast 376 433 17,800 -1,662 Descending FlightAware ADS-B
Sat 02:41:57 AM 49.0700 10.4230 134° Southeast 367 422 16,600 -1,624 Descending FlightAware ADS-B
Sat 02:42:37 AM 49.0230 10.4990 133° Southeast 361 415 15,500 -1,553 Descending FlightAware ADS-B
Sat 02:43:22 AM 48.9710 10.5840 133° Southeast 353 406 14,400 -1,341 Descending FlightAware ADS-B
Sat 02:44:02 AM 48.9250 10.6570 134° Southeast 347 399 13,600 -1,050 Descending FlightAware ADS-B
Sat 02:44:42 AM 48.8840 10.7230 133° Southeast 336 387 13,000 -424 Descending FlightAware ADS-B
Sat 02:45:27 AM 48.8360 10.8010 133° Southeast 339 390 13,000  Level FlightAware ADS-B
Sat 02:46:07 AM 48.7980 10.8610 134° Southeast 340 391 13,000  Level FlightAware ADS-B
Sat 02:46:52 AM 48.7530 10.9340 133° Southeast 340 391 13,000  Level FlightAware ADS-B
Sat 02:47:27 AM 48.7140 10.9910 136° Southeast 343 395 13,000 -560 Level FlightAware ADS-B
Sat 02:48:07 AM 48.6680 11.0580 136° Southeast 331 381 12,300 -867 Descending FlightAware ADS-B
Sat 02:48:57 AM 48.6070 11.1460 136° Southeast 293 337 11,700 -800 Descending FlightAware ADS-B
Sat 02:49:37 AM 48.5650 11.1890 146° Southeast 283 326 11,100 -988 Descending FlightAware ADS-B
Sat 02:50:22 AM 48.5170 11.2340 148° Southeast 266 306 10,300 -1,108 Descending FlightAware ADS-B
Sat 02:50:42 AM 48.4980 11.2520 148° Southeast 265 305 9,900 -1,320 Descending FlightAware ADS-B
Sat 02:51:12 AM 48.4630 11.2830 150° Southeast 264 304 9,200 -1,333 Descending FlightAware ADS-B
Sat 02:51:27 AM 48.4500 11.2940 151° Southeast 263 303 8,900 -1,333 Descending FlightAware ADS-B
Sat 02:51:57 AM 48.4150 11.3220 152° Southeast 257 296 8,200 -1,300 Descending FlightAware ADS-B
Sat 02:52:27 AM 48.3820 11.3460 154° Southeast 255 293 7,600 -1,200 Descending FlightAware ADS-B
Sat 02:52:52 AM 48.3590 11.3740 141° Southeast 244 281 7,100 -1,200 Descending FlightAware ADS-B
Sat 02:53:07 AM 48.3510 11.3970 118° Southeast 238 274 6,800 -1,200 Descending FlightAware ADS-B
Sat 02:53:32 AM 48.3450 11.4350 103° East 234 269 6,300 -1,418 Descending FlightAware ADS-B
Sat 02:54:02 AM 48.3460 11.4840 88° East 226 260 5,500 -1,400 Descending FlightAware ADS-B
Sat 02:54:32 AM 48.3490 11.5260 84° East 217 250 4,900 -764 Descending FlightAware ADS-B
Sat 02:54:57 AM 48.3510 11.5650 86° East 186 214 4,800 -655 Descending FlightAware ADS-B
Sat 02:55:27 AM 48.3540 11.6020 83° East 171 197 4,300 -1,000 Descending FlightAware ADS-B
Sat 02:55:57 AM 48.3560 11.6340 85° East 156 180 3,800 -873 Descending FlightAware ADS-B
Sat 02:56:22 AM 48.3580 11.6610 84° East 149 171 3,500 -764 Descending FlightAware ADS-B
Sat 02:56:52 AM 48.3600 11.6910 84° East 127 146 3,100 -800 Descending FlightAware ADS-B
Sat 02:57:07 AM 48.3600 11.7020 90° East 116 133 2,900 -600 Descending FlightAware ADS-B
Sat 02:57:32 AM 48.3610 11.7200 85° East 117 135 2,700 -655 Descending FlightAware ADS-B
Sat 02:58:02 AM 48.3630 11.7480 84° East 118 136 2,300 -764 Descending FlightAware ADS-B
Sat 02:58:27 AM 48.3640 11.7680 86° East 124 143 2,000 -655 Descending FlightAware ADS-B
Sat 02:58:57 AM 48.3660 11.7940 83° East 126 145 1,700 -700 Descending FlightAware ADS-B
Sat 02:59:27 AM 48.3670 11.8210 87° East 129 148 1,300 -800 Descending FlightAware ADS-B

Login

Don't have an account? Register now (free) for customized features, flight alerts, and more!